Garfield, Arkansas
Current Conditions -  °F | °C
As of 11:24 AM on Tuesday 21 Oct 2014 (Local Time) from KROG Reporting Station
Scattered Clouds Scattered Clouds  
Wind Chill: 63°   Ceiling: Unl
Heat Index: 63°   Visibility: 8mi
Dew Point: 61°   Wind: 0mph
Humidity: 94%   Direction: NA
Pressure: 30.17"   Gusts: NA
Location:  36.45°N, 93.97°W
Report Text: KROG 211624Z 00000KT 8SM SCT002 17/16 A3017 RMK AO2
Loading
Personal Weather Stations






























Interactive Weather Map
Tropical Storm Tracking
New forecast layout! Learn more

10-Day Weather Forecast

Advertisements
Track Severe Weather on mobile